Time;durP1;ratioP1;P1;durP2;ratioP2;P2;SDS_P1;SDS_P2;PMS_P1;PMS_P2;Temp;Humidity;BMP_temperature;BMP_pressure;BME280_temperature;BME280_humidity;BME280_pressure;Samples;Min_cycle;Max_cycle;Signal;HPM_P1;HPM_P2
2023/10/12 00:00:42;;;;;;;31.23;19.52;;;10.10;99.90;;;;;;5045506;28;20071;-85
2023/10/12 00:03:12;;;;;;;43.13;24.70;;;10.10;99.90;;;;;;5051386;28;20128;-85
2023/10/12 00:05:38;;;;;;;40.08;21.23;;;10.10;99.90;;;;;;5051356;28;20021;-79
2023/10/12 00:08:09;;;;;;;55.50;28.83;;;10.10;99.90;;;;;;5052564;28;20021;-79
2023/10/12 00:10:44;;;;;;;33.47;20.65;;;10.10;99.90;;;;;;5051024;28;20390;-85
2023/10/12 00:13:13;;;;;;;36.58;20.75;;;10.10;99.90;;;;;;5052484;28;20119;-86
2023/10/12 00:15:45;;;;;;;31.48;19.67;;;10.00;99.90;;;;;;5061704;28;20055;-85
2023/10/12 00:18:14;;;;;;;33.35;19.48;;;10.00;99.90;;;;;;5051182;28;20037;-85
2023/10/12 00:20:40;;;;;;;30.65;18.55;;;10.00;99.90;;;;;;5051151;28;20021;-85
2023/10/12 00:23:09;;;;;;;28.27;17.08;;;10.00;99.90;;;;;;5052032;28;20448;-79
2023/10/12 00:25:46;;;;;;;38.47;19.58;;;10.00;99.90;;;;;;5052636;28;20013;-85
2023/10/12 00:28:19;;;;;;;35.50;20.13;;;10.00;99.90;;;;;;5051103;28;20025;-85
2023/10/12 00:30:50;;;;;;;28.00;17.50;;;10.10;99.90;;;;;;5049752;28;20018;-85
2023/10/12 00:33:17;;;;;;;31.83;19.30;;;10.10;99.90;;;;;;5045597;28;20487;-85
2023/10/12 00:35:49;;;;;;;28.85;17.35;;;10.10;99.90;;;;;;5051151;28;20422;-85
2023/10/12 00:38:18;;;;;;;30.15;17.83;;;10.00;99.90;;;;;;5050647;28;20033;-85
2023/10/12 00:40:51;;;;;;;28.35;15.55;;;10.00;99.90;;;;;;5052443;28;20017;-85
2023/10/12 00:43:20;;;;;;;29.38;16.23;;;9.90;99.90;;;;;;5053744;28;20032;-85
2023/10/12 00:45:46;;;;;;;22.85;14.10;;;9.90;99.90;;;;;;5052492;28;20021;-85
2023/10/12 00:48:16;;;;;;;22.05;13.73;;;9.90;99.90;;;;;;5052038;28;20111;-85
2023/10/12 00:50:44;;;;;;;27.10;15.77;;;9.80;99.90;;;;;;5057259;28;20020;-79
2023/10/12 00:55:47;;;;;;;33.05;18.63;;;9.80;99.90;;;;;;5052405;28;20414;-79
2023/10/12 00:58:14;;;;;;;30.15;17.42;;;9.70;99.90;;;;;;5050984;28;20025;-80
2023/10/12 01:00:51;;;;;;;29.20;18.83;;;9.70;99.90;;;;;;5050734;28;20091;-85
2023/10/12 01:08:46;;;;;;;35.60;20.25;;;9.80;99.90;;;;;;5055903;28;20166;-79
2023/10/12 01:11:37;;;;;;;34.78;19.23;;;9.80;99.90;;;;;;5054271;28;20023;-79
2023/10/12 01:16:42;;;;;;;33.00;19.25;;;9.80;99.90;;;;;;5055945;28;20035;-79
2023/10/12 01:19:08;;;;;;;25.42;15.90;;;9.80;99.90;;;;;;5054016;28;20037;-79
2023/10/12 01:21:38;;;;;;;25.40;14.88;;;9.80;99.90;;;;;;5054342;28;20025;-79
2023/10/12 01:24:12;;;;;;;19.05;12.63;;;9.70;99.90;;;;;;5053996;28;20020;-79
2023/10/12 01:26:39;;;;;;;10.52;8.65;;;9.60;99.90;;;;;;5053868;28;20021;-79
2023/10/12 01:29:10;;;;;;;11.18;8.65;;;9.50;99.90;;;;;;5054159;28;20044;-86
2023/10/12 01:31:36;;;;;;;13.38;10.30;;;9.40;99.90;;;;;;5055180;28;20067;-79
2023/10/12 01:34:03;;;;;;;12.32;9.30;;;9.30;99.90;;;;;;5059180;28;20048;-79
2023/10/12 01:36:30;;;;;;;12.75;9.93;;;9.20;99.90;;;;;;5053861;28;20047;-85
2023/10/12 01:39:12;;;;;;;19.67;12.40;;;9.20;99.90;;;;;;5054099;28;20139;-85
2023/10/12 01:41:41;;;;;;;20.75;12.98;;;9.20;99.90;;;;;;5055843;28;20074;-85
2023/10/12 01:44:11;;;;;;;18.45;11.93;;;9.20;99.90;;;;;;5055220;28;20022;-79
2023/10/12 01:46:41;;;;;;;22.38;11.90;;;9.10;99.90;;;;;;5051879;28;20474;-85
2023/10/12 01:49:08;;;;;;;15.98;11.07;;;9.10;99.90;;;;;;5056464;28;20029;-79
2023/10/12 01:51:40;;;;;;;28.95;11.82;;;9.10;99.90;;;;;;5053250;28;20021;-85
2023/10/12 01:54:11;;;;;;;20.38;11.20;;;9.10;99.90;;;;;;5054984;28;20087;-79
2023/10/12 01:56:38;;;;;;;21.00;12.63;;;9.10;99.90;;;;;;5041553;28;20050;-85
2023/10/12 01:59:07;;;;;;;18.85;11.43;;;9.10;99.90;;;;;;5049631;28;20037;-79
2023/10/12 02:01:33;;;;;;;23.70;13.75;;;9.10;99.90;;;;;;5062597;28;20501;-79
2023/10/12 02:04:02;;;;;;;25.13;13.63;;;9.00;99.90;;;;;;5054331;28;20474;-79
2023/10/12 02:06:28;;;;;;;16.13;11.80;;;9.00;99.90;;;;;;5052987;28;20060;-85
2023/10/12 02:08:59;;;;;;;20.65;12.52;;;9.00;99.90;;;;;;5053585;28;20045;-79
2023/10/12 02:13:51;;;;;;;17.70;10.95;;;8.90;99.90;;;;;;5054010;28;20493;-79
2023/10/12 02:16:31;;;;;;;18.05;10.77;;;8.90;99.90;;;;;;5054187;28;20095;-85
2023/10/12 02:18:58;;;;;;;6.15;5.72;;;8.90;99.90;;;;;;5054357;28;20104;-85
2023/10/12 02:21:26;;;;;;;23.05;14.52;;;8.90;99.90;;;;;;5055581;28;20021;-85
2023/10/12 02:26:36;;;;;;;23.30;14.98;;;8.90;99.90;;;;;;5054083;28;20029;-85
2023/10/12 02:29:11;;;;;;;21.02;13.95;;;9.00;99.90;;;;;;5054204;28;20020;-79
2023/10/12 02:34:31;;;;;;;29.95;14.30;;;9.10;99.90;;;;;;5061478;28;20052;-85
2023/10/12 02:39:28;;;;;;;26.75;16.20;;;9.30;99.90;;;;;;5054187;28;20102;-79
2023/10/12 02:42:10;;;;;;;27.38;15.77;;;9.40;99.90;;;;;;5052317;28;20528;-85
2023/10/12 02:44:42;;;;;;;24.02;14.65;;;9.40;99.90;;;;;;5052662;28;20454;-79
2023/10/12 02:47:51;;;;;;;30.90;15.53;;;9.40;99.90;;;;;;5052653;28;20053;-85
2023/10/12 02:50:22;;;;;;;22.63;12.48;;;9.40;99.90;;;;;;5056676;28;20316;-79
2023/10/12 02:52:48;;;;;;;20.27;11.43;;;9.40;99.90;;;;;;5054357;28;20025;-85
2023/10/12 02:55:40;;;;;;;22.95;12.32;;;9.30;99.90;;;;;;5052368;28;20036;-85
2023/10/12 02:58:06;;;;;;;19.77;11.93;;;9.30;99.90;;;;;;5053296;28;20132;-79
2023/10/12 03:00:45;;;;;;;22.27;12.25;;;9.30;99.90;;;;;;5053890;28;20132;-85
2023/10/12 03:03:23;;;;;;;21.98;11.40;;;9.30;99.90;;;;;;5044412;28;20030;-79
2023/10/12 03:05:51;;;;;;;21.48;11.95;;;9.30;99.90;;;;;;5049967;28;20024;-85
2023/10/12 03:08:19;;;;;;;18.02;11.65;;;9.20;99.90;;;;;;5053457;28;20497;-85
2023/10/12 03:13:38;;;;;;;17.25;10.73;;;9.20;99.90;;;;;;5059196;28;20044;-79
2023/10/12 03:18:36;;;;;;;15.05;10.18;;;9.10;99.90;;;;;;5053138;28;21635;-79
2023/10/12 03:21:04;;;;;;;16.88;10.13;;;9.10;99.90;;;;;;5054408;28;20031;-79
2023/10/12 03:23:34;;;;;;;19.35;12.18;;;9.10;99.90;;;;;;5053206;28;20013;-85
2023/10/12 03:26:17;;;;;;;22.30;12.27;;;9.10;99.90;;;;;;5054201;28;20474;-79
2023/10/12 03:28:44;;;;;;;;;;;9.10;99.90;;;;;;5054043;28;20108;-80
2023/10/12 03:31:33;;;;;;;17.00;10.90;;;9.00;99.90;;;;;;5051800;28;19912;-79
2023/10/12 03:34:00;;;;;;;14.45;9.52;;;9.00;99.90;;;;;;5042006;28;20024;-85
2023/10/12 03:36:32;;;;;;;16.05;9.65;;;8.90;99.90;;;;;;5063032;28;20475;-85
2023/10/12 03:47:14;;;;;;;15.23;8.88;;;8.70;99.90;;;;;;5055230;28;20115;-85
2023/10/12 03:52:19;;;;;;;12.60;9.23;;;8.60;99.90;;;;;;5052555;28;20528;-80
2023/10/12 03:54:55;;;;;;;14.77;9.38;;;8.60;99.90;;;;;;5051009;28;20055;-79
2023/10/12 03:57:28;;;;;;;19.45;11.50;;;8.50;99.90;;;;;;5051012;28;20478;-85
2023/10/12 04:05:21;;;;;;;20.63;10.50;;;8.60;99.90;;;;;;5052810;28;20029;-79
2023/10/12 04:13:09;;;;;;;19.88;13.80;;;8.70;99.90;;;;;;5052819;28;20056;-85
2023/10/12 04:18:28;;;;;;;25.95;13.65;;;8.90;99.90;;;;;;5052462;28;20130;-79
2023/10/12 04:20:57;;;;;;;19.55;12.80;;;9.00;99.90;;;;;;5051312;28;20029;-79
2023/10/12 04:28:52;;;;;;;18.13;11.85;;;9.10;99.90;;;;;;5047041;28;20084;-79
2023/10/12 04:31:21;;;;;;;17.67;11.50;;;9.00;99.90;;;;;;5045492;28;20029;-79
2023/10/12 04:36:34;;;;;;;16.95;11.98;;;9.00;99.90;;;;;;5062067;28;20024;-79
2023/10/12 04:41:39;;;;;;;20.33;11.15;;;8.90;99.90;;;;;;5056198;28;20112;-80
2023/10/12 04:46:59;;;;;;;17.80;11.70;;;8.80;99.90;;;;;;5045340;28;20087;-85
2023/10/12 04:57:32;;;;;;;26.85;16.38;;;9.10;99.90;;;;;;5055997;28;20039;-84
2023/10/12 05:02:56;;;;;;;24.77;17.38;;;9.30;99.90;;;;;;5055992;28;20029;-85
2023/10/12 05:07:53;;;;;;;34.42;18.08;;;9.50;99.90;;;;;;5056091;28;20116;-79
2023/10/12 05:13:05;;;;;;;28.65;16.80;;;9.60;99.90;;;;;;5062068;28;20033;-79
2023/10/12 05:15:42;;;;;;;28.33;17.45;;;9.60;99.90;;;;;;5054141;28;20043;-85
2023/10/12 05:18:17;;;;;;;26.80;17.05;;;9.80;99.90;;;;;;5054156;28;20143;-85
2023/10/12 05:20:44;;;;;;;28.77;17.38;;;9.70;99.90;;;;;;5048915;28;20056;-85
2023/10/12 05:23:11;;;;;;;24.45;14.82;;;9.80;99.90;;;;;;5061914;28;20051;-85
2023/10/12 05:28:31;;;;;;;24.63;12.80;;;9.60;99.90;;;;;;5055585;28;20027;-79
2023/10/12 05:31:09;;;;;;;23.15;13.32;;;9.50;99.90;;;;;;5055556;28;20049;-85
2023/10/12 05:36:05;;;;;;;26.25;15.80;;;9.50;99.90;;;;;;5063029;28;20086;-79
2023/10/12 05:38:37;;;;;;;22.33;16.02;;;9.40;99.90;;;;;;5054784;28;20048;-79
2023/10/12 05:41:08;;;;;;;25.50;15.73;;;9.50;99.90;;;;;;5048710;28;20029;-85
2023/10/12 05:43:36;;;;;;;25.55;13.15;;;9.50;99.90;;;;;;5053963;28;20637;-85
2023/10/12 05:46:15;;;;;;;24.25;14.65;;;9.50;99.90;;;;;;5054905;28;20513;-85
2023/10/12 05:48:52;;;;;;;28.70;15.88;;;9.60;99.90;;;;;;5056000;28;20041;-79
2023/10/12 05:51:21;;;;;;;20.70;13.18;;;9.60;99.90;;;;;;5053877;28;20111;-84
2023/10/12 05:54:06;;;;;;;20.88;13.02;;;9.70;99.90;;;;;;5053923;28;20112;-85
2023/10/12 05:56:35;;;;;;;18.73;12.88;;;9.60;99.90;;;;;;5046966;28;20040;-84
2023/10/12 05:59:04;;;;;;;17.15;11.68;;;9.60;99.90;;;;;;5058694;28;20036;-79
2023/10/12 06:01:32;;;;;;;20.55;12.85;;;9.60;99.90;;;;;;5053468;28;20024;-79
2023/10/12 06:04:08;;;;;;;21.38;13.45;;;9.60;99.90;;;;;;5053286;28;20055;-79
2023/10/12 06:06:38;;;;;;;22.23;15.27;;;9.60;99.90;;;;;;5054851;28;20025;-84
2023/10/12 06:09:11;;;;;;;25.83;16.02;;;9.70;99.90;;;;;;5054431;28;20051;-84
2023/10/12 06:11:40;;;;;;;25.88;15.95;;;9.80;99.90;;;;;;5050825;28;20108;-85
2023/10/12 06:14:06;;;;;;;34.53;18.33;;;9.90;99.90;;;;;;5053532;28;20057;-85
2023/10/12 06:16:39;;;;;;;29.08;18.05;;;10.10;99.90;;;;;;5054502;28;20072;-78
2023/10/12 06:19:05;;;;;;;;;;;10.20;99.90;;;;;;5041380;28;20037;-86
2023/10/12 06:21:40;;;;;;;25.42;16.67;;;10.40;99.90;;;;;;5064451;28;20281;-82
2023/10/12 06:24:11;;;;;;;28.58;19.65;;;10.50;99.90;;;;;;5053289;28;20029;-78
2023/10/12 06:26:38;;;;;;;27.20;18.17;;;10.70;99.90;;;;;;5052782;28;20086;-78
2023/10/12 06:29:07;;;;;;;27.60;19.27;;;10.80;99.90;;;;;;5052605;28;20486;-78
2023/10/12 06:31:33;;;;;;;30.25;19.77;;;11.00;99.90;;;;;;5050620;28;20029;-81
2023/10/12 06:34:10;;;;;;;29.80;18.05;;;11.20;99.90;;;;;;5054112;28;20009;-82
2023/10/12 06:36:38;;;;;;;27.25;17.77;;;11.40;99.90;;;;;;5049874;28;20429;-78
2023/10/12 06:44:26;;;;;;;27.35;16.38;;;11.90;99.90;;;;;;5047051;28;20056;-79
2023/10/12 06:46:53;;;;;;;25.77;15.13;;;12.10;99.90;;;;;;5050417;28;20041;-79
2023/10/12 06:49:23;;;;;;;20.48;15.02;;;12.30;99.90;;;;;;5051669;28;20025;-82
2023/10/12 06:52:01;;;;;;;23.58;13.07;;;12.40;99.90;;;;;;5055388;28;20088;-78
2023/10/12 06:54:32;;;;;;;23.90;14.00;;;12.60;99.90;;;;;;5050221;28;20009;-82
2023/10/12 07:02:28;;;;;;;21.63;13.73;;;13.00;99.90;;;;;;5051504;28;20072;-78
2023/10/12 07:04:55;;;;;;;21.38;13.50;;;13.10;99.90;;;;;;5050416;28;20111;-82
2023/10/12 07:07:29;;;;;;;24.13;14.18;;;13.20;99.90;;;;;;5051600;28;20024;-82
2023/10/12 07:12:49;;;;;;;19.42;13.48;;;13.30;99.90;;;;;;5041533;28;20028;-78
2023/10/12 07:15:21;;;;;;;25.30;13.75;;;13.30;99.90;;;;;;5051914;28;20033;-83
2023/10/12 07:17:51;;;;;;;20.80;13.70;;;13.40;99.90;;;;;;5056490;28;20048;-82
2023/10/12 07:23:15;;;;;;;19.20;13.27;;;13.50;99.90;;;;;;5053725;28;20032;-82
2023/10/12 07:25:48;;;;;;;21.67;13.02;;;13.50;99.90;;;;;;5051412;28;20203;-83
2023/10/12 07:28:32;;;;;;;21.27;13.50;;;13.60;99.90;;;;;;5064807;28;20132;-78
2023/10/12 07:39:38;;;;;;;24.42;14.63;;;13.80;99.90;;;;;;5050617;28;20037;-83
2023/10/12 07:42:08;;;;;;;18.17;12.02;;;14.00;99.90;;;;;;5044544;28;20517;-79
2023/10/12 07:44:38;;;;;;;19.55;11.98;;;14.20;99.90;;;;;;5051488;28;20452;-83
2023/10/12 07:47:13;;;;;;;17.15;10.98;;;14.50;99.90;;;;;;5052499;28;20057;-79
2023/10/12 07:49:46;;;;;;;16.98;10.32;;;14.70;99.90;;;;;;5063977;28;20082;-83
2023/10/12 07:57:13;;;;;;;22.52;11.82;;;15.60;99.90;;;;;;5053029;28;20036;-79
2023/10/12 07:59:54;;;;;;;16.73;9.00;;;15.90;99.90;;;;;;5052651;28;20036;-79
2023/10/12 08:02:59;;;;;;;15.73;9.55;;;16.10;99.90;;;;;;5054891;28;20511;-79
2023/10/12 08:13:15;;;;;;;45.05;19.30;;;17.00;99.90;;;;;;5052131;28;20048;-83
2023/10/12 08:21:17;;;;;;;24.05;9.65;;;17.60;99.90;;;;;;5053450;28;20095;-84
2023/10/12 08:23:49;;;;;;;19.17;8.80;;;17.80;99.90;;;;;;5051908;28;20044;-79
2023/10/12 08:29:02;;;;;;;19.85;8.77;;;18.10;99.90;;;;;;5041065;28;20032;-83
2023/10/12 08:31:30;;;;;;;18.27;8.20;;;18.30;99.90;;;;;;5050721;28;20047;-79
2023/10/12 08:34:13;;;;;;;19.60;8.30;;;18.40;99.90;;;;;;5050981;28;20378;-79
2023/10/12 08:37:12;;;;;;;;;;;18.50;99.90;;;;;;5052483;28;20021;-83
2023/10/12 08:39:37;;;;;;;17.08;7.40;;;18.60;99.90;;;;;;5052203;28;20383;-78
2023/10/12 08:44:51;;;;;;;21.33;8.88;;;18.90;99.90;;;;;;5052090;28;20086;-78
2023/10/12 08:52:28;;;;;;;15.27;6.93;;;19.20;94.50;;;;;;5051136;28;20368;-83
2023/10/12 08:55:10;;;;;;;23.42;9.50;;;19.30;90.60;;;;;;5050961;28;20032;-83
2023/10/12 08:58:04;;;;;;;27.90;9.32;;;19.40;89.90;;;;;;5054572;28;20437;-82
2023/10/12 09:03:05;;;;;;;13.27;5.87;;;19.70;91.10;;;;;;5052025;28;20394;-78
2023/10/12 09:05:32;;;;;;;18.17;6.28;;;19.70;86.40;;;;;;5050440;28;20430;-82
2023/10/12 09:10:49;;;;;;;11.52;5.25;;;19.90;86.50;;;;;;5040288;28;20017;-78
2023/10/12 09:13:18;;;;;;;16.75;5.93;;;19.90;82.30;;;;;;5050752;28;20442;-78
2023/10/12 09:15:54;;;;;;;17.42;8.57;;;20.00;80.60;;;;;;5053146;28;20017;-83
2023/10/12 09:18:24;;;;;;;14.60;7.63;;;20.10;80.00;;;;;;5050291;28;20375;-78
2023/10/12 09:23:38;;;;;;;19.00;6.25;;;20.20;81.00;;;;;;5052128;28;20080;-83
2023/10/12 09:31:48;;;;;;;17.80;7.20;;;20.30;78.40;;;;;;5067254;28;20078;-82
2023/10/12 09:36:43;;;;;;;14.00;7.30;;;20.40;78.30;;;;;;5055576;28;20117;-83
2023/10/12 09:39:13;;;;;;;16.10;6.65;;;20.50;77.90;;;;;;5056084;28;20399;-78
2023/10/12 09:41:40;;;;;;;15.38;5.30;;;20.40;78.50;;;;;;5055433;28;20009;-78
2023/10/12 09:44:07;;;;;;;14.57;7.30;;;20.30;75.70;;;;;;5053907;28;20025;-83
2023/10/12 09:46:33;;;;;;;20.80;6.82;;;20.30;78.20;;;;;;5054839;28;20045;-78
2023/10/12 09:49:21;;;;;;;15.85;5.97;;;20.30;78.50;;;;;;5055090;28;20040;-77
2023/10/12 09:51:52;;;;;;;15.23;5.85;;;20.40;78.20;;;;;;5044903;28;20021;-83
2023/10/12 09:54:30;;;;;;;15.98;6.70;;;20.60;79.00;;;;;;5054306;28;20021;-78
2023/10/12 09:57:02;;;;;;;26.42;7.53;;;20.60;77.60;;;;;;5055035;28;20392;-83
2023/10/12 09:59:29;;;;;;;;;;;20.70;76.80;;;;;;5054962;28;20071;-78
2023/10/12 10:02:04;;;;;;;19.17;8.38;;;20.80;76.50;;;;;;5053605;28;19912;-83
2023/10/12 10:04:34;;;;;;;15.50;7.43;;;21.00;79.20;;;;;;5042322;28;20521;-83
2023/10/12 10:07:32;;;;;;;20.45;8.02;;;21.00;76.50;;;;;;5062268;28;20047;-84
2023/10/12 10:10:00;;;;;;;19.35;8.93;;;21.20;76.20;;;;;;5055012;28;20041;-78
2023/10/12 10:12:35;;;;;;;16.15;6.93;;;21.40;76.40;;;;;;5054541;28;20040;-78
2023/10/12 10:15:10;;;;;;;17.90;7.93;;;21.40;75.60;;;;;;5054344;28;20040;-78
2023/10/12 10:17:46;;;;;;;21.75;8.20;;;21.50;75.30;;;;;;5041840;28;20025;-79
2023/10/12 10:23:01;;;;;;;21.65;8.23;;;21.40;72.70;;;;;;5057783;28;20029;-78
2023/10/12 10:25:33;;;;;;;20.35;10.60;;;21.40;73.10;;;;;;5036489;28;20017;-79
2023/10/12 10:28:06;;;;;;;24.90;9.40;;;21.40;73.20;;;;;;5047304;28;20024;-79
2023/10/12 10:30:41;;;;;;;24.38;8.82;;;21.40;73.60;;;;;;5054584;28;20026;-78
2023/10/12 10:33:12;;;;;;;20.38;8.05;;;21.60;76.60;;;;;;5048737;28;20021;-84
2023/10/12 10:35:59;;;;;;;19.60;8.55;;;21.60;74.80;;;;;;5053732;28;20031;-79
2023/10/12 10:38:32;;;;;;;21.40;8.98;;;21.70;74.40;;;;;;5053938;28;20096;-84
2023/10/12 10:41:07;;;;;;;;;;;21.60;74.20;;;;;;5054375;28;20485;-79
2023/10/12 10:43:37;;;;;;;23.73;8.10;;;21.50;73.50;;;;;;5042523;28;19995;-84
2023/10/12 10:46:06;;;;;;;13.07;6.03;;;21.30;74.50;;;;;;5053535;28;20360;-84
2023/10/12 10:48:34;;;;;;;8.93;5.90;;;21.20;72.90;;;;;;5052562;28;20040;-79
2023/10/12 10:51:06;;;;;;;18.15;7.57;;;21.10;71.20;;;;;;5052466;28;20071;-78
2023/10/12 10:53:36;;;;;;;14.10;5.90;;;21.20;71.00;;;;;;5051969;28;20021;-79
2023/10/12 10:56:15;;;;;;;21.63;6.75;;;21.20;72.80;;;;;;5052170;28;20390;-84
2023/10/12 10:58:41;;;;;;;12.70;5.68;;;21.20;73.80;;;;;;5065554;28;20055;-79
2023/10/12 11:01:12;;;;;;;15.05;6.15;;;21.20;75.00;;;;;;5053781;28;20527;-82
2023/10/12 11:03:43;;;;;;;12.38;6.43;;;21.20;73.70;;;;;;5053672;28;20391;-76
2023/10/12 11:06:21;;;;;;;18.05;7.68;;;21.20;73.30;;;;;;5040950;28;20025;-82
2023/10/12 11:08:53;;;;;;;20.05;7.28;;;21.40;75.30;;;;;;5048026;28;20612;-76
2023/10/12 11:11:37;;;;;;;11.93;5.85;;;21.50;71.90;;;;;;5053595;28;20029;-82
2023/10/12 11:14:08;;;;;;;12.25;5.93;;;21.40;71.10;;;;;;5053189;28;20478;-83
2023/10/12 11:16:36;;;;;;;13.63;7.20;;;21.30;72.70;;;;;;5052198;28;20021;-76
2023/10/12 11:19:04;;;;;;;15.85;7.72;;;21.00;73.90;;;;;;5051807;28;20033;-82
2023/10/12 11:21:29;;;;;;;15.18;7.20;;;20.80;74.20;;;;;;5052365;28;20422;-76
2023/10/12 11:24:09;;;;;;;16.45;6.22;;;20.70;76.40;;;;;;5052196;28;20017;-76
2023/10/12 11:26:52;;;;;;;12.77;6.68;;;20.60;77.30;;;;;;5051694;28;20036;-82
2023/10/12 11:29:17;;;;;;;13.02;6.45;;;20.30;78.80;;;;;;5056815;28;20029;-76
2023/10/12 11:31:46;;;;;;;13.40;6.20;;;20.10;80.60;;;;;;5051537;28;20371;-83
2023/10/12 11:34:23;;;;;;;15.80;6.88;;;20.10;81.60;;;;;;5052959;28;20017;-83
2023/10/12 11:36:57;;;;;;;15.52;6.45;;;20.10;83.00;;;;;;5055567;28;20027;-77
2023/10/12 11:39:28;;;;;;;20.00;7.10;;;20.10;84.00;;;;;;5058869;28;20029;-83
2023/10/12 11:42:12;;;;;;;13.48;7.63;;;20.00;83.80;;;;;;5053206;28;20016;-83
2023/10/12 11:44:42;;;;;;;14.43;7.30;;;19.90;85.20;;;;;;5052737;28;20021;-77
2023/10/12 11:47:09;;;;;;;18.08;8.00;;;19.90;89.10;;;;;;5051115;28;20423;-83
2023/10/12 11:49:57;;;;;;;14.07;7.05;;;19.80;87.00;;;;;;5051465;28;20017;-83
2023/10/12 11:52:32;;;;;;;12.90;6.93;;;19.70;88.30;;;;;;5050834;28;20112;-83
2023/10/12 11:55:20;;;;;;;16.15;7.63;;;19.70;90.60;;;;;;5052973;28;20112;-77
2023/10/12 11:57:54;;;;;;;17.63;9.18;;;19.60;90.60;;;;;;5052744;28;20017;-83
2023/10/12 12:00:29;;;;;;;25.38;10.73;;;19.60;92.10;;;;;;5051676;28;20777;-77
2023/10/12 12:03:02;;;;;;;29.75;13.57;;;19.60;91.20;;;;;;5040156;28;20028;-77
2023/10/12 12:05:33;;;;;;;26.83;11.35;;;19.60;90.60;;;;;;5039541;28;20022;-83
2023/10/12 12:08:01;;;;;;;17.13;10.55;;;19.60;93.40;;;;;;5054338;28;20025;-83
2023/10/12 12:10:38;;;;;;;14.35;8.95;;;19.60;92.80;;;;;;5051073;28;20025;-82
2023/10/12 12:13:08;;;;;;;20.75;8.07;;;19.70;93.10;;;;;;5052545;28;20048;-77
2023/10/12 12:15:33;;;;;;;15.32;6.75;;;19.60;90.60;;;;;;5051240;28;20098;-83
2023/10/12 12:17:59;;;;;;;16.80;6.32;;;19.80;90.40;;;;;;5060996;28;20029;-83
2023/10/12 12:20:25;;;;;;;14.57;6.10;;;19.80;87.20;;;;;;5050990;28;20028;-76
2023/10/12 12:22:57;;;;;;;15.95;7.90;;;19.90;89.50;;;;;;5051356;28;20020;-83
2023/10/12 12:25:32;;;;;;;11.63;6.45;;;20.00;88.80;;;;;;5046561;28;20026;-83
2023/10/12 12:28:02;;;;;;;15.13;6.63;;;20.20;87.90;;;;;;5044546;28;20025;-78
2023/10/12 12:30:33;;;;;;;13.27;8.70;;;20.30;83.90;;;;;;5051143;28;20033;-83
2023/10/12 12:33:03;;;;;;;19.45;7.13;;;20.40;79.70;;;;;;5050926;28;20013;-77
2023/10/12 12:35:29;;;;;;;22.65;10.70;;;20.50;78.40;;;;;;5057780;28;20044;-84
2023/10/12 12:38:05;;;;;;;14.65;7.32;;;20.40;81.20;;;;;;5052058;28;20033;-77
2023/10/12 12:40:44;;;;;;;17.50;8.35;;;20.30;81.30;;;;;;5050855;28;20040;-77
2023/10/12 12:43:10;;;;;;;16.52;7.90;;;20.30;82.70;;;;;;5051959;28;20017;-83
2023/10/12 12:45:36;;;;;;;14.05;6.97;;;20.20;80.30;;;;;;5050068;28;20021;-77
2023/10/12 12:48:04;;;;;;;16.73;7.40;;;20.20;79.60;;;;;;5050386;28;20494;-77
2023/10/12 12:50:30;;;;;;;12.95;6.95;;;20.10;80.10;;;;;;5051336;28;20032;-77
2023/10/12 12:52:57;;;;;;;10.88;6.57;;;20.00;80.70;;;;;;5054326;28;20021;-77
2023/10/12 12:55:27;;;;;;;14.55;7.90;;;19.90;80.70;;;;;;5052539;28;20013;-77
2023/10/12 12:57:59;;;;;;;15.57;8.23;;;19.80;81.20;;;;;;5050919;28;20517;-77
2023/10/12 13:00:25;;;;;;;12.20;7.00;;;19.90;83.80;;;;;;5054588;28;20469;-77
2023/10/12 13:02:50;;;;;;;19.75;9.63;;;19.90;83.80;;;;;;5067056;28;20022;-77
2023/10/12 13:05:16;;;;;;;19.65;8.23;;;20.00;84.00;;;;;;5054296;28;20136;-77
2023/10/12 13:07:46;;;;;;;21.40;17.08;;;20.10;83.20;;;;;;5054653;28;20048;-83
2023/10/12 13:10:12;;;;;;;25.55;13.65;;;20.10;81.90;;;;;;5058021;28;20115;-83
2023/10/12 13:12:40;;;;;;;19.52;13.18;;;20.00;81.00;;;;;;5054624;28;20386;-77
2023/10/12 13:15:09;;;;;;;17.58;10.55;;;20.10;82.00;;;;;;5055435;28;20025;-82
2023/10/12 13:17:39;;;;;;;17.13;9.82;;;20.10;83.00;;;;;;5055447;28;20021;-78
2023/10/12 13:20:06;;;;;;;12.57;7.80;;;20.10;84.30;;;;;;5061323;28;20064;-83
2023/10/12 13:22:33;;;;;;;19.75;8.63;;;20.00;84.60;;;;;;5054064;28;20023;-83
2023/10/12 13:24:59;;;;;;;13.88;8.70;;;20.10;85.50;;;;;;5055347;28;20029;-83
2023/10/12 13:27:27;;;;;;;17.92;8.45;;;19.90;82.60;;;;;;5055538;28;20031;-83
2023/10/12 13:30:09;;;;;;;12.48;6.95;;;19.70;84.40;;;;;;5054008;28;20025;-83
2023/10/12 13:32:36;;;;;;;11.20;7.27;;;19.70;87.70;;;;;;5057982;28;20397;-84
2023/10/12 13:35:17;;;;;;;12.35;6.50;;;19.60;89.90;;;;;;5053945;28;20013;-77
2023/10/12 13:37:44;;;;;;;16.53;8.37;;;19.40;91.60;;;;;;5054075;28;20021;-78
2023/10/12 13:40:15;;;;;;;14.23;7.63;;;19.40;96.10;;;;;;5058307;28;20302;-78
2023/10/12 13:42:41;;;;;;;13.35;6.50;;;19.30;99.30;;;;;;5059788;28;20099;-83
2023/10/12 13:45:12;;;;;;;19.55;7.85;;;19.20;99.90;;;;;;5053885;28;20025;-84
2023/10/12 13:47:40;;;;;;;19.77;8.35;;;19.00;99.90;;;;;;5053627;28;20044;-84
2023/10/12 13:50:10;;;;;;;12.60;8.20;;;18.90;99.90;;;;;;5055456;28;20057;-78
2023/10/12 13:52:37;;;;;;;13.95;7.35;;;18.80;99.90;;;;;;5056160;28;20501;-83
2023/10/12 13:55:11;;;;;;;15.18;7.57;;;18.70;99.90;;;;;;5053796;28;20382;-84
2023/10/12 13:57:58;;;;;;;12.90;8.55;;;18.50;99.90;;;;;;5054718;28;20393;-78
2023/10/12 14:00:26;;;;;;;19.33;10.10;;;18.40;99.90;;;;;;5051890;28;20037;-78
2023/10/12 14:02:56;;;;;;;16.02;9.32;;;18.20;99.90;;;;;;5053017;28;20052;-83
2023/10/12 14:05:29;;;;;;;21.45;9.07;;;18.10;99.90;;;;;;5052929;28;20028;-84
2023/10/12 14:08:01;;;;;;;17.77;10.13;;;18.00;99.90;;;;;;5054367;28;20021;-84
2023/10/12 14:10:27;;;;;;;;;;;17.90;99.90;;;;;;5056038;28;20021;-83
2023/10/12 14:12:53;;;;;;;16.27;7.80;;;17.80;99.90;;;;;;5052934;28;19908;-84
2023/10/12 14:15:29;;;;;;;21.45;10.18;;;17.70;99.90;;;;;;5053134;28;20025;-78
2023/10/12 14:17:59;;;;;;;13.68;8.93;;;17.70;99.90;;;;;;5052833;28;20489;-78
2023/10/12 14:20:28;;;;;;;18.08;9.25;;;17.60;99.90;;;;;;5052706;28;20036;-80
2023/10/12 14:22:58;;;;;;;18.98;8.88;;;17.50;99.90;;;;;;5049808;28;20075;-79
2023/10/12 14:25:28;;;;;;;16.85;9.20;;;17.30;99.90;;;;;;5041767;28;20159;-78
2023/10/12 14:27:54;;;;;;;17.70;8.52;;;17.30;99.90;;;;;;5039294;28;20068;-78
2023/10/12 14:30:28;;;;;;;26.05;11.38;;;17.20;99.90;;;;;;5039804;28;20483;-79
2023/10/12 14:32:55;;;;;;;25.17;13.90;;;17.10;99.90;;;;;;5038361;28;20018;-79
2023/10/12 14:35:20;;;;;;;23.67;11.88;;;16.90;99.90;;;;;;5038035;28;20052;-79
2023/10/12 14:37:46;;;;;;;17.17;10.68;;;16.80;99.90;;;;;;5050445;28;20410;-79
2023/10/12 14:40:18;;;;;;;20.13;10.88;;;16.70;99.90;;;;;;5038241;28;20030;-79
2023/10/12 14:42:43;;;;;;;22.05;10.98;;;16.70;99.90;;;;;;5047915;28;20115;-85
2023/10/12 14:45:09;;;;;;;17.15;12.35;;;16.70;99.90;;;;;;5056196;28;20056;-79
2023/10/12 14:47:36;;;;;;;23.63;12.75;;;16.50;99.90;;;;;;5036485;28;20049;-79
2023/10/12 14:50:05;;;;;;;24.85;13.38;;;16.50;99.90;;;;;;5034019;28;20029;-79
2023/10/12 14:52:40;;;;;;;22.35;12.52;;;16.50;99.90;;;;;;5037354;28;20037;-79
2023/10/12 14:55:10;;;;;;;28.50;14.40;;;16.40;99.90;;;;;;5042527;28;20013;-80
2023/10/12 14:57:38;;;;;;;29.35;14.23;;;16.40;99.90;;;;;;5037922;28;20070;-80
2023/10/12 15:00:22;;;;;;;21.90;12.55;;;16.30;99.90;;;;;;5054632;28;20029;-79
2023/10/12 15:02:48;;;;;;;27.27;13.57;;;16.30;99.90;;;;;;5053453;28;20374;-79
2023/10/12 15:05:14;;;;;;;27.45;13.38;;;16.20;99.90;;;;;;5051728;28;20052;-85
2023/10/12 15:07:40;;;;;;;24.42;13.70;;;16.10;99.90;;;;;;5052081;28;20048;-85
2023/10/12 15:10:06;;;;;;;19.55;12.93;;;16.00;99.90;;;;;;5051256;28;20493;-85
2023/10/12 15:12:37;;;;;;;18.92;13.07;;;16.00;99.90;;;;;;5052817;28;20021;-79
2023/10/12 15:15:08;;;;;;;36.92;19.70;;;15.90;99.90;;;;;;5050345;28;20028;-85
2023/10/12 15:17:40;;;;;;;65.65;35.65;;;15.80;99.90;;;;;;5051110;28;20395;-85
2023/10/12 15:20:08;;;;;;;48.85;28.40;;;15.80;99.90;;;;;;5050421;28;20029;-79
2023/10/12 15:22:34;;;;;;;34.75;21.40;;;15.70;99.90;;;;;;5052518;28;20467;-79
2023/10/12 15:25:04;;;;;;;33.10;22.77;;;15.60;99.90;;;;;;5051735;28;20060;-85
2023/10/12 15:27:30;;;;;;;48.80;27.80;;;15.40;99.90;;;;;;5050263;28;20017;-79
2023/10/12 15:29:55;;;;;;;63.25;34.58;;;15.30;99.90;;;;;;5048236;28;20021;-85
2023/10/12 15:32:21;;;;;;;87.95;46.95;;;15.20;99.90;;;;;;5053091;28;20062;-85
2023/10/12 15:34:49;;;;;;;68.00;35.92;;;15.20;99.90;;;;;;5048550;28;20496;-85